createdAt,value
2022-08-05T00:00:54.915Z,101130.81
2022-08-05T00:03:22.235Z,101131.31
2022-08-05T00:06:06.609Z,101124.22
2022-08-05T00:08:37.792Z,101125.72
2022-08-05T00:11:20.584Z,101127.66
2022-08-05T00:13:57.960Z,101129.00
2022-08-05T00:16:36.199Z,101120.56
2022-08-05T00:19:12.957Z,101119.22
2022-08-05T00:21:42.664Z,101120.56
2022-08-05T00:24:11.262Z,101119.91
2022-08-05T00:26:51.858Z,101121.91
2022-08-05T00:29:22.587Z,101116.69
2022-08-05T00:32:13.059Z,101121.25
2022-08-05T00:35:04.182Z,101121.25
2022-08-05T00:37:51.018Z,101114.50
2022-08-05T00:40:26.850Z,101113.66
2022-08-05T00:43:02.337Z,101114.19
2022-08-05T00:45:43.103Z,101118.88
2022-08-05T00:48:18.477Z,101114.81
2022-08-05T00:50:55.070Z,101110.97
2022-08-05T00:54:00.057Z,101125.13
2022-08-05T00:56:11.223Z,101120.25
2022-08-05T00:58:39.344Z,101125.00
2022-08-05T01:01:11.552Z,101124.13
2022-08-05T01:03:40.228Z,101119.06
2022-08-05T01:06:11.163Z,101118.06
2022-08-05T01:08:44.314Z,101116.88
2022-08-05T01:11:22.283Z,101119.56
2022-08-05T01:14:02.791Z,101111.63
2022-08-05T01:16:36.015Z,101116.00
2022-08-05T01:19:19.794Z,101109.97
2022-08-05T01:22:15.502Z,101110.94
2022-08-05T01:25:40.563Z,101101.47
2022-08-05T01:28:32.085Z,101106.16
2022-08-05T01:31:23.136Z,101108.88
2022-08-05T01:34:01.828Z,101108.19
2022-08-05T01:36:34.222Z,101114.94
2022-08-05T01:39:11.874Z,101113.00
2022-08-05T01:41:44.412Z,101115.72
2022-08-05T01:44:13.251Z,101111.69
2022-08-05T01:46:46.480Z,101106.97
2022-08-05T01:49:23.330Z,101101.22
2022-08-05T01:51:58.428Z,101116.41
2022-08-05T01:54:46.188Z,101107.97
2022-08-05T01:58:12.972Z,101099.38
2022-08-05T02:00:12.295Z,101099.88
2022-08-05T02:02:55.163Z,101100.91
2022-08-05T02:05:28.619Z,101104.28
2022-08-05T02:08:01.221Z,101105.78
2022-08-05T02:10:34.853Z,101102.09
2022-08-05T02:13:15.715Z,101101.75
2022-08-05T02:15:53.941Z,101102.09
2022-08-05T02:18:31.342Z,101100.03
2022-08-05T02:21:06.552Z,101102.69
2022-08-05T02:23:46.356Z,101099.16
2022-08-05T02:26:17.176Z,101097.13
2022-08-05T02:28:47.732Z,101096.94
2022-08-05T02:31:22.442Z,101098.94
2022-08-05T02:33:57.997Z,101091.31
2022-08-05T02:36:31.310Z,101094.19
2022-08-05T02:39:01.636Z,101096.56
2022-08-05T02:41:42.819Z,101095.25
2022-08-05T02:44:13.560Z,101098.59
2022-08-05T02:46:53.376Z,101095.25
2022-08-05T02:49:27.268Z,101092.66
2022-08-05T02:52:08.008Z,101087.16
2022-08-05T02:54:41.258Z,101090.50
2022-08-05T02:58:09.316Z,101094.84
2022-08-05T03:00:04.724Z,101088.09
2022-08-05T03:02:36.871Z,101090.78
2022-08-05T03:05:08.483Z,101084.53
2022-08-05T03:08:00.584Z,101097.47
2022-08-05T03:10:25.929Z,101099.28
2022-08-05T03:12:54.374Z,101096.69
2022-08-05T03:15:23.671Z,101092.78
2022-08-05T03:17:55.870Z,101093.28
2022-08-05T03:20:25.036Z,101089.88
2022-08-05T03:22:53.203Z,101089.25
2022-08-05T03:25:32.530Z,101095.59
2022-08-05T03:28:06.046Z,101093.84
2022-08-05T03:30:36.757Z,101090.25
2022-08-05T03:33:07.510Z,101097.22
2022-08-05T03:35:40.723Z,101094.06
2022-08-05T03:38:12.235Z,101088.81
2022-08-05T03:40:45.140Z,101089.69
2022-08-05T03:43:15.950Z,101091.59
2022-08-05T03:46:03.366Z,101093.28
2022-08-05T03:48:35.393Z,101092.13
2022-08-05T03:52:37.444Z,101096.34
2022-08-05T03:55:51.304Z,101095.81
2022-08-05T03:57:16.057Z,101092.13
2022-08-05T04:00:04.756Z,101089.59
2022-08-05T04:02:51.989Z,101085.69
2022-08-05T04:05:26.048Z,101099.66
2022-08-05T04:07:57.747Z,101099.00
2022-08-05T04:10:37.153Z,101094.97
2022-08-05T04:13:06.601Z,101097.22
2022-08-05T04:15:36.211Z,101095.50
2022-08-05T04:18:07.319Z,101105.97
2022-08-05T04:20:36.866Z,101112.06
2022-08-05T04:23:04.206Z,101107.22
2022-08-05T04:25:56.639Z,101114.44
2022-08-05T04:28:30.897Z,101116.69
2022-08-05T04:31:01.085Z,101109.94
2022-08-05T04:34:17.065Z,101116.38
2022-08-05T04:36:45.892Z,101118.75
2022-08-05T04:39:04.261Z,101115.91
2022-08-05T04:41:37.286Z,101112.38
2022-08-05T04:44:09.498Z,101119.50
2022-08-05T04:46:38.528Z,101116.19
2022-08-05T04:49:12.324Z,101118.72
2022-08-05T04:51:44.864Z,101113.03
2022-08-05T04:54:12.572Z,101113.56
2022-08-05T04:56:40.095Z,101115.38
2022-08-05T04:59:22.949Z,101117.00
2022-08-05T05:02:07.436Z,101114.50
2022-08-05T05:04:43.963Z,101109.97
2022-08-05T05:07:12.211Z,101113.53
2022-08-05T05:09:43.269Z,101119.16
2022-08-05T05:12:11.839Z,101115.47
2022-08-05T05:14:49.482Z,101118.34
2022-08-05T05:17:23.551Z,101110.31
2022-08-05T05:19:55.232Z,101111.09
2022-08-05T05:22:26.488Z,101106.91
2022-08-05T05:24:57.548Z,101099.69
2022-08-05T05:27:45.221Z,101113.34
2022-08-05T05:30:30.841Z,101110.53
2022-08-05T05:33:13.859Z,101110.03
2022-08-05T05:35:47.650Z,101109.94
2022-08-05T05:38:22.786Z,101114.50
2022-08-05T05:40:57.351Z,101111.28
2022-08-05T05:43:57.130Z,101111.97
2022-08-05T05:46:17.709Z,101118.22
2022-08-05T05:48:48.306Z,101118.06
2022-08-05T05:51:23.261Z,101107.72
2022-08-05T05:53:58.123Z,101117.03
2022-08-05T05:56:34.425Z,101113.44
2022-08-05T05:59:05.614Z,101118.13
2022-08-05T06:01:38.219Z,101127.22
2022-08-05T06:04:14.582Z,101124.13
2022-08-05T06:06:47.393Z,101118.66
2022-08-05T06:09:24.931Z,101122.72
2022-08-05T06:12:01.386Z,101117.38
2022-08-05T06:14:33.263Z,101117.47
2022-08-05T06:17:22.301Z,101127.13
2022-08-05T06:19:56.958Z,101110.13
2022-08-05T06:22:33.700Z,101112.72
2022-08-05T06:25:24.911Z,101122.75
2022-08-05T06:28:08.908Z,101129.88
2022-08-05T06:30:38.986Z,101120.91
2022-08-05T06:33:10.059Z,101126.38
2022-08-05T06:36:08.056Z,101126.78
2022-08-05T06:38:36.799Z,101129.56
2022-08-05T06:41:07.938Z,101132.28
2022-08-05T06:43:51.570Z,101124.28
2022-08-05T06:46:30.014Z,101121.75
2022-08-05T06:48:59.772Z,101128.63
2022-08-05T06:51:30.700Z,101129.41
2022-08-05T06:54:00.219Z,101129.91
2022-08-05T06:56:34.639Z,101127.09
2022-08-05T06:59:09.520Z,101124.50
2022-08-05T07:01:40.790Z,101122.28
2022-08-05T07:04:10.037Z,101123.63
2022-08-05T07:06:37.333Z,101125.81
2022-08-05T07:09:04.989Z,101131.34
2022-08-05T07:11:37.305Z,101128.06
2022-08-05T07:14:29.771Z,101134.47
2022-08-05T07:17:58.905Z,101134.69
2022-08-05T07:20:31.471Z,101132.22
2022-08-05T07:22:38.669Z,101127.91
2022-08-05T07:25:23.450Z,101128.59
2022-08-05T07:28:01.460Z,101133.91
2022-08-05T07:30:33.991Z,101130.59
2022-08-05T07:33:09.187Z,101129.56
2022-08-05T07:36:02.761Z,101133.38
2022-08-05T07:38:33.824Z,101130.25
2022-08-05T07:41:35.006Z,101130.06
2022-08-05T07:43:56.325Z,101116.88
2022-08-05T07:46:26.247Z,101111.19
2022-08-05T07:49:02.504Z,101114.75
2022-08-05T07:51:40.950Z,101112.66
2022-08-05T07:54:26.354Z,101114.09
2022-08-05T07:57:13.629Z,101116.63
2022-08-05T07:59:42.163Z,101112.38
2022-08-05T08:02:16.446Z,101100.19
2022-08-05T08:04:49.774Z,101103.78
2022-08-05T08:07:22.373Z,101100.94
2022-08-05T08:09:52.444Z,101114.44
2022-08-05T08:12:33.540Z,101111.03
2022-08-05T08:15:15.081Z,101107.84
2022-08-05T08:17:46.042Z,101113.16
2022-08-05T08:20:43.532Z,101106.16
2022-08-05T08:24:00.351Z,101106.44
2022-08-05T08:25:59.929Z,101113.88
2022-08-05T08:28:36.730Z,101106.00
2022-08-05T08:31:06.592Z,101107.63
2022-08-05T08:33:37.368Z,101110.97
2022-08-05T08:36:37.584Z,101101.47
2022-08-05T08:38:55.961Z,101113.56
2022-08-05T08:41:51.989Z,101108.13
2022-08-05T08:45:20.312Z,101105.69
2022-08-05T08:47:47.333Z,101108.03
2022-08-05T08:50:06.213Z,101095.50
2022-08-05T08:52:55.845Z,101099.28
2022-08-05T08:55:32.064Z,101100.16
2022-08-05T08:58:16.961Z,101100.09
2022-08-05T09:00:45.145Z,101099.38
2022-08-05T09:03:16.143Z,101089.72
2022-08-05T09:06:08.901Z,101087.69
2022-08-05T09:08:35.654Z,101084.88
2022-08-05T09:11:13.586Z,101083.81
2022-08-05T09:14:09.195Z,101090.38
2022-08-05T09:16:30.771Z,101080.00
2022-08-05T09:18:59.629Z,101095.28
2022-08-05T09:22:22.000Z,101087.31
2022-08-05T09:24:15.811Z,101073.56
2022-08-05T09:26:48.447Z,101084.06
2022-08-05T09:29:19.904Z,101068.47
2022-08-05T09:32:42.933Z,101077.16
2022-08-05T09:34:54.988Z,101076.09
2022-08-05T09:38:12.289Z,101073.00
2022-08-05T09:40:34.521Z,101075.16
2022-08-05T09:43:03.784Z,101067.09
2022-08-05T09:46:06.697Z,101069.06
2022-08-05T09:48:29.265Z,101067.28
2022-08-05T09:50:58.970Z,101067.78
2022-08-05T09:53:54.733Z,101064.31
2022-08-05T09:56:28.454Z,101065.00
2022-08-05T10:02:41.881Z,101054.03
2022-08-05T10:05:20.931Z,101046.28
2022-08-05T10:08:35.379Z,101053.19
2022-08-05T10:10:53.839Z,101049.00
2022-08-05T10:13:47.792Z,101051.28
2022-08-05T10:16:33.832Z,101038.03
2022-08-05T10:19:08.565Z,101031.13
2022-08-05T10:21:40.361Z,101033.81
2022-08-05T10:24:13.633Z,101032.34
2022-08-05T10:26:51.298Z,101028.03
2022-08-05T10:29:24.169Z,101027.63
2022-08-05T10:32:52.416Z,101027.09
2022-08-05T10:35:00.880Z,101022.69
2022-08-05T10:37:44.444Z,101024.09
2022-08-05T10:40:45.015Z,101020.41
2022-08-05T10:43:36.374Z,101011.25
2022-08-05T10:46:08.740Z,101015.63
2022-08-05T10:49:17.098Z,101012.59
2022-08-05T10:52:19.906Z,101014.63
2022-08-05T10:55:05.964Z,101021.09
2022-08-05T10:57:34.133Z,101006.59
2022-08-05T11:00:22.828Z,101007.25
2022-08-05T11:03:23.683Z,101006.75
2022-08-05T11:06:08.300Z,101003.97
2022-08-05T11:08:37.063Z,101003.13
2022-08-05T11:11:44.915Z,101002.34
2022-08-05T11:14:42.829Z,100993.28
2022-08-05T11:17:59.162Z,101006.03
2022-08-05T11:21:40.887Z,101003.84
2022-08-05T11:24:31.090Z,100992.59
2022-08-05T11:27:45.783Z,100988.75
2022-08-05T11:30:17.324Z,100986.28
2022-08-05T11:32:44.638Z,100987.31
2022-08-05T11:36:02.827Z,100985.31
2022-08-05T11:38:45.721Z,100975.91
2022-08-05T11:41:56.351Z,100982.84
2022-08-05T11:44:21.748Z,100982.25
2022-08-05T11:47:15.207Z,100977.38
2022-08-05T11:49:49.574Z,100970.19
2022-08-05T11:52:30.980Z,100974.91
2022-08-05T11:54:59.584Z,100969.88
2022-08-05T11:58:07.943Z,100975.03
2022-08-05T12:00:30.376Z,100971.56
2022-08-05T12:02:58.090Z,100976.44
2022-08-05T12:05:36.275Z,100971.28
2022-08-05T12:08:11.438Z,100969.69
2022-08-05T12:10:45.826Z,100960.56
2022-08-05T12:13:18.898Z,100967.44
2022-08-05T12:16:14.879Z,100969.41
2022-08-05T12:18:52.716Z,100962.81
2022-08-05T12:21:29.899Z,100956.72
2022-08-05T12:24:09.362Z,100958.13
2022-08-05T12:26:52.796Z,100948.97
2022-08-05T12:29:24.986Z,100956.97
2022-08-05T12:31:54.484Z,100955.59
2022-08-05T12:34:35.848Z,100949.81
2022-08-05T12:37:29.734Z,100941.78
2022-08-05T12:40:03.701Z,100945.63
2022-08-05T12:42:40.896Z,100937.63
2022-08-05T12:45:10.056Z,100940.94
2022-08-05T12:47:38.265Z,100933.16
2022-08-05T12:50:19.781Z,100927.13
2022-08-05T12:52:59.431Z,100931.81
2022-08-05T12:55:28.539Z,100926.53
2022-08-05T12:58:52.426Z,100928.22
2022-08-05T13:02:01.314Z,100930.66
2022-08-05T13:03:41.823Z,100916.53
2022-08-05T13:06:16.801Z,100919.56
2022-08-05T13:08:52.499Z,100920.19
2022-08-05T13:11:47.017Z,100910.47
2022-08-05T13:14:14.797Z,100913.00
2022-08-05T13:16:56.683Z,100906.28
2022-08-05T13:19:27.084Z,100906.56
2022-08-05T13:22:14.321Z,100899.47
2022-08-05T13:24:58.076Z,100896.97
2022-08-05T13:27:36.306Z,100899.88
2022-08-05T13:30:32.922Z,100899.28
2022-08-05T13:33:04.269Z,100894.84
2022-08-05T13:35:47.566Z,100889.59
2022-08-05T13:38:30.447Z,100891.00
2022-08-05T13:40:59.880Z,100886.66
2022-08-05T13:43:44.956Z,100884.44
2022-08-05T13:46:14.043Z,100880.88
2022-08-05T13:48:58.484Z,100882.44
2022-08-05T13:51:30.055Z,100875.84
2022-08-05T13:54:11.969Z,100878.97
2022-08-05T13:56:45.389Z,100876.22
2022-08-05T13:59:24.050Z,100872.69
2022-08-05T14:02:00.104Z,100864.69
2022-08-05T14:05:00.713Z,100864.53
2022-08-05T14:08:00.139Z,100859.72
2022-08-05T14:10:28.545Z,100854.19
2022-08-05T14:12:56.990Z,100852.25
2022-08-05T14:16:04.985Z,100852.94
2022-08-05T14:18:14.937Z,100846.94
2022-08-05T14:20:54.371Z,100844.78
2022-08-05T14:23:26.017Z,100838.22
2022-08-05T14:25:58.115Z,100840.66
2022-08-05T14:28:29.783Z,100837.63
2022-08-05T14:31:01.614Z,100836.47
2022-08-05T14:33:32.526Z,100831.94
2022-08-05T14:36:21.512Z,100834.59
2022-08-05T14:38:50.324Z,100823.72
2022-08-05T14:41:18.697Z,100822.97
2022-08-05T14:44:02.271Z,100817.72
2022-08-05T14:46:35.357Z,100802.38
2022-08-05T14:49:07.558Z,100811.94
2022-08-05T14:51:42.808Z,100804.22
2022-08-05T14:54:29.930Z,100802.25
2022-08-05T14:56:59.022Z,100803.59
2022-08-05T14:59:29.811Z,100798.94
2022-08-05T15:02:14.672Z,100803.84
2022-08-05T15:04:43.293Z,100796.00
2022-08-05T15:07:10.792Z,100791.09
2022-08-05T15:09:58.137Z,100789.56
2022-08-05T15:12:40.907Z,100786.84
2022-08-05T15:15:16.326Z,100783.22
2022-08-05T15:17:45.929Z,100781.56
2022-08-05T15:20:17.164Z,100781.34
2022-08-05T15:22:54.052Z,100781.06
2022-08-05T15:25:51.060Z,100781.41
2022-08-05T15:28:14.547Z,100773.50
2022-08-05T15:30:45.513Z,100769.47
2022-08-05T15:33:56.903Z,100773.41
2022-08-05T15:36:04.770Z,100762.19
2022-08-05T15:38:40.784Z,100763.97
2022-08-05T15:41:22.229Z,100763.47
2022-08-05T15:43:54.845Z,100756.75
2022-08-05T15:46:24.304Z,100767.38
2022-08-05T15:48:58.631Z,100753.09
2022-08-05T15:52:13.375Z,100752.06
2022-08-05T15:54:17.111Z,100745.03
2022-08-05T15:56:44.385Z,100751.19
2022-08-05T15:59:22.063Z,100746.41
2022-08-05T16:01:53.284Z,100744.06
2022-08-05T16:04:25.507Z,100748.69
2022-08-05T16:06:56.278Z,100740.22
2022-08-05T16:09:24.739Z,100739.56
2022-08-05T16:11:54.204Z,100736.88
2022-08-05T16:14:22.995Z,100731.69
2022-08-05T16:16:50.758Z,100733.47
2022-08-05T16:19:25.491Z,100733.69
2022-08-05T16:22:06.766Z,100733.25
2022-08-05T16:24:41.840Z,100733.75
2022-08-05T16:27:18.987Z,100734.06
2022-08-05T16:29:50.992Z,100745.88
2022-08-05T16:32:28.393Z,100740.75
2022-08-05T16:34:58.899Z,100739.75
2022-08-05T16:38:16.455Z,100743.31
2022-08-05T16:40:26.597Z,100751.66
2022-08-05T16:42:56.734Z,100740.88
2022-08-05T16:46:07.691Z,100745.25
2022-08-05T16:48:11.062Z,100740.59
2022-08-05T16:50:53.332Z,100756.66
2022-08-05T16:53:22.616Z,100745.59
2022-08-05T16:55:59.274Z,100750.53
2022-08-05T16:58:26.861Z,100752.66
2022-08-05T17:00:54.307Z,100749.25
2022-08-05T17:03:22.279Z,100745.03
2022-08-05T17:05:54.327Z,100749.75
2022-08-05T17:08:36.001Z,100756.34
2022-08-05T17:11:17.316Z,100756.06
2022-08-05T17:13:45.573Z,100755.81
2022-08-05T17:16:32.614Z,100759.31
2022-08-05T17:19:00.874Z,100763.47
2022-08-05T17:21:35.757Z,100767.69
2022-08-05T17:24:18.520Z,100768.25
2022-08-05T17:26:54.044Z,100775.13
2022-08-05T17:29:33.888Z,100776.38
2022-08-05T17:32:11.775Z,100782.50
2022-08-05T17:34:48.093Z,100771.63
2022-08-05T17:37:39.755Z,100778.91
2022-08-05T17:40:10.213Z,100774.16
2022-08-05T17:42:42.971Z,100778.13
2022-08-05T17:45:22.897Z,100781.19
2022-08-05T17:47:56.098Z,100781.38
2022-08-05T17:50:30.505Z,100790.53
2022-08-05T17:53:00.215Z,100791.78
2022-08-05T17:55:37.479Z,100791.50
2022-08-05T17:58:12.665Z,100795.47
2022-08-05T18:00:47.171Z,100801.63
2022-08-05T18:03:55.841Z,100804.41
2022-08-05T18:06:12.225Z,100797.34
2022-08-05T18:08:45.292Z,100800.72
2022-08-05T18:11:23.329Z,100802.63
2022-08-05T18:13:52.441Z,100807.56
2022-08-05T18:16:20.510Z,100809.63
2022-08-05T18:18:49.857Z,100815.25
2022-08-05T18:21:19.498Z,100817.91
2022-08-05T18:23:48.549Z,100816.09
2022-08-05T18:26:18.030Z,100822.53
2022-08-05T18:28:46.486Z,100828.63
2022-08-05T18:31:15.754Z,100829.31
2022-08-05T18:33:47.141Z,100835.81
2022-08-05T18:36:17.443Z,100835.09
2022-08-05T18:38:46.844Z,100835.56
2022-08-05T18:41:58.405Z,100846.25
2022-08-05T18:44:06.429Z,100854.06
2022-08-05T18:46:35.248Z,100842.38
2022-08-05T18:49:23.716Z,100851.28
2022-08-05T18:52:16.439Z,100862.00
2022-08-05T18:54:45.765Z,100872.06
2022-08-05T18:57:15.322Z,100874.81
2022-08-05T19:00:01.734Z,100881.38
2022-08-05T19:02:30.224Z,100885.34
2022-08-05T19:05:03.012Z,100883.09
2022-08-05T19:07:49.603Z,100895.19
2022-08-05T19:10:28.480Z,100895.84
2022-08-05T19:12:57.219Z,100900.03
2022-08-05T19:15:56.582Z,100900.28
2022-08-05T19:18:22.342Z,100900.78
2022-08-05T19:20:54.288Z,100903.81
2022-08-05T19:24:06.102Z,100902.59
2022-08-05T19:26:11.230Z,100900.16
2022-08-05T19:28:43.447Z,100899.75
2022-08-05T19:31:13.693Z,100913.25
2022-08-05T19:33:48.340Z,100920.47
2022-08-05T19:36:29.403Z,100916.16
2022-08-05T19:39:01.117Z,100918.47
2022-08-05T19:42:05.549Z,100922.03
2022-08-05T19:44:18.890Z,100927.09
2022-08-05T19:46:47.143Z,100930.03
2022-08-05T19:49:18.056Z,100928.81
2022-08-05T19:52:09.062Z,100934.69
2022-08-05T19:54:34.727Z,100931.16
2022-08-05T19:57:06.520Z,100934.13
2022-08-05T19:59:55.339Z,100933.75
2022-08-05T20:02:25.023Z,100939.00
2022-08-05T20:04:55.311Z,100938.81
2022-08-05T20:07:45.817Z,100944.50
2022-08-05T20:10:11.681Z,100942.84
2022-08-05T20:12:47.966Z,100944.09
2022-08-05T20:15:47.885Z,100943.88
2022-08-05T20:18:10.936Z,100938.88
2022-08-05T20:20:56.581Z,100941.78
2022-08-05T20:23:39.324Z,100941.78
2022-08-05T20:26:15.186Z,100941.81
2022-08-05T20:28:51.440Z,100944.53
2022-08-05T20:31:28.326Z,100948.53
2022-08-05T20:34:04.491Z,100941.81
2022-08-05T20:36:31.767Z,100938.88
2022-08-05T20:39:00.071Z,100942.03
2022-08-05T20:41:44.605Z,100940.34
2022-08-05T20:44:17.804Z,100939.91
2022-08-05T20:46:57.791Z,100954.13
2022-08-05T20:49:26.039Z,100949.28
2022-08-05T20:51:55.077Z,100945.09
2022-08-05T20:54:25.339Z,100956.22
2022-08-05T20:56:53.259Z,100952.44
2022-08-05T20:59:26.549Z,100957.69
2022-08-05T21:01:56.475Z,100953.88
2022-08-05T21:04:26.989Z,100956.81
2022-08-05T21:06:54.997Z,100954.47
2022-08-05T21:09:23.167Z,100949.47
2022-08-05T21:11:51.737Z,100950.88
2022-08-05T21:14:36.159Z,100947.31
2022-08-05T21:17:05.213Z,100949.16
2022-08-05T21:19:47.375Z,100953.00
2022-08-05T21:22:23.272Z,100948.72
2022-08-05T21:24:52.645Z,100960.63
2022-08-05T21:27:25.217Z,100951.81
2022-08-05T21:29:54.139Z,100957.66
2022-08-05T21:32:26.644Z,100963.50
2022-08-05T21:35:16.767Z,100963.09
2022-08-05T21:37:47.468Z,100971.19
2022-08-05T21:40:23.188Z,100967.19
2022-08-05T21:42:53.499Z,100965.50
2022-08-05T21:45:24.569Z,100966.53
2022-08-05T21:48:06.446Z,100959.59
2022-08-05T21:50:36.735Z,100963.56
2022-08-05T21:53:16.578Z,100961.84
2022-08-05T21:56:04.492Z,100972.31
2022-08-05T21:58:32.872Z,100966.78
2022-08-05T22:01:00.456Z,100966.53
2022-08-05T22:03:48.588Z,100975.97
2022-08-05T22:06:22.776Z,100971.72
2022-08-05T22:08:52.492Z,100976.81
2022-08-05T22:11:34.907Z,100977.28
2022-08-05T22:14:33.775Z,100982.50
2022-08-05T22:16:57.062Z,100980.25
2022-08-05T22:20:00.502Z,100983.00
2022-08-05T22:22:15.908Z,100991.25
2022-08-05T22:25:01.874Z,100991.81
2022-08-05T22:28:10.557Z,100988.47
2022-08-05T22:30:35.054Z,100989.59
2022-08-05T22:33:15.651Z,100985.97
2022-08-05T22:35:48.740Z,100988.19
2022-08-05T22:38:18.998Z,100978.22
2022-08-05T22:40:49.898Z,100991.31
2022-08-05T22:43:36.713Z,100986.41
2022-08-05T22:46:11.980Z,100975.56
2022-08-05T22:48:41.965Z,100976.75
2022-08-05T22:51:22.499Z,100980.41
2022-08-05T22:53:51.865Z,100975.44
2022-08-05T22:56:30.112Z,100983.13
2022-08-05T22:59:00.032Z,100980.81
2022-08-05T23:02:03.805Z,100976.69
2022-08-05T23:04:18.189Z,100988.84
2022-08-05T23:06:45.527Z,100988.09
2022-08-05T23:09:27.941Z,100979.41
2022-08-05T23:12:03.700Z,100983.03
2022-08-05T23:14:32.188Z,100984.06
2022-08-05T23:17:24.245Z,100975.84
2022-08-05T23:19:56.369Z,100970.69
2022-08-05T23:22:27.440Z,100964.53
2022-08-05T23:24:55.603Z,100969.94
2022-08-05T23:27:24.107Z,100971.91
2022-08-05T23:29:56.014Z,100974.56
2022-08-05T23:32:23.719Z,100972.66
2022-08-05T23:34:51.139Z,100967.91
2022-08-05T23:37:18.456Z,100971.78
2022-08-05T23:39:54.212Z,100970.81
2022-08-05T23:42:29.037Z,100979.41
2022-08-05T23:44:57.239Z,100986.25
2022-08-05T23:47:25.084Z,100988.94
2022-08-05T23:49:56.465Z,100988.00
2022-08-05T23:52:27.545Z,100984.19
2022-08-05T23:54:57.436Z,100989.03
2022-08-05T23:57:28.336Z,101004.84
